createdAt,value
2022-08-03T00:02:17.800Z,7.55
2022-08-03T00:04:45.566Z,5.78
2022-08-03T00:07:12.773Z,6.25
2022-08-03T00:09:40.022Z,5.65
2022-08-03T00:12:07.791Z,7.38
2022-08-03T00:14:35.148Z,6.32
2022-08-03T00:17:03.930Z,6.47
2022-08-03T00:19:31.265Z,6.05
2022-08-03T00:21:58.360Z,6.65
2022-08-03T00:24:25.635Z,6.80
2022-08-03T00:26:52.859Z,5.90
2022-08-03T00:29:20.240Z,6.05
2022-08-03T00:31:59.354Z,6.93
2022-08-03T00:34:57.286Z,6.22
2022-08-03T00:37:15.203Z,6.47
2022-08-03T00:39:46.049Z,7.25
2022-08-03T00:42:13.557Z,6.70
2022-08-03T00:44:42.740Z,6.07
2022-08-03T00:47:11.777Z,6.70
2022-08-03T00:49:41.130Z,6.82
2022-08-03T00:52:13.918Z,6.88
2022-08-03T00:54:41.311Z,6.95
2022-08-03T00:57:09.261Z,5.60
2022-08-03T00:59:38.390Z,6.28
2022-08-03T01:02:06.208Z,5.97
2022-08-03T01:04:33.433Z,6.75
2022-08-03T01:07:32.765Z,6.75
2022-08-03T01:10:28.706Z,6.93
2022-08-03T01:14:01.944Z,6.45
2022-08-03T01:16:36.516Z,5.72
2022-08-03T01:19:34.908Z,6.78
2022-08-03T01:22:23.270Z,6.40
2022-08-03T01:25:15.125Z,5.68
2022-08-03T01:27:57.677Z,6.38
2022-08-03T01:30:31.642Z,5.20
2022-08-03T01:33:12.705Z,7.05
2022-08-03T01:35:46.806Z,5.80
2022-08-03T01:38:19.216Z,6.43
2022-08-03T01:40:48.033Z,6.68
2022-08-03T01:44:26.792Z,6.13
2022-08-03T01:46:09.316Z,6.85
2022-08-03T01:48:39.873Z,6.95
2022-08-03T01:51:09.322Z,7.05
2022-08-03T01:53:38.464Z,6.93
2022-08-03T01:56:07.743Z,6.57
2022-08-03T01:58:37.440Z,6.07
2022-08-03T02:01:07.382Z,6.60
2022-08-03T02:03:38.698Z,6.55
2022-08-03T02:07:01.968Z,5.72
2022-08-03T02:09:17.868Z,5.18
2022-08-03T02:11:47.286Z,6.93
2022-08-03T02:14:16.534Z,5.57
2022-08-03T02:16:46.306Z,6.53
2022-08-03T02:19:14.948Z,5.55
2022-08-03T02:21:56.746Z,5.88
2022-08-03T02:24:32.139Z,6.70
2022-08-03T02:27:01.440Z,7.13
2022-08-03T02:29:40.285Z,7.03
2022-08-03T02:32:17.566Z,6.75
2022-08-03T02:34:49.455Z,6.45
2022-08-03T02:37:20.178Z,6.10
2022-08-03T02:39:49.384Z,6.82
2022-08-03T02:42:18.946Z,5.82
2022-08-03T02:44:50.137Z,7.43
2022-08-03T02:47:21.514Z,6.72
2022-08-03T02:49:52.315Z,6.72
2022-08-03T02:52:26.917Z,6.85
2022-08-03T02:54:59.382Z,6.15
2022-08-03T02:57:32.151Z,6.50
2022-08-03T03:00:00.461Z,6.40
2022-08-03T03:02:29.954Z,7.13
2022-08-03T03:05:54.740Z,6.60
2022-08-03T03:07:51.873Z,6.43
2022-08-03T03:10:22.767Z,5.82
2022-08-03T03:12:56.885Z,6.32
2022-08-03T03:15:26.249Z,7.30
2022-08-03T03:17:54.735Z,5.53
2022-08-03T03:20:29.800Z,7.30
2022-08-03T03:23:01.757Z,6.30
2022-08-03T03:25:33.087Z,6.25
2022-08-03T03:28:02.076Z,6.10
2022-08-03T03:30:30.295Z,8.15
2022-08-03T03:32:59.788Z,6.63
2022-08-03T03:35:28.288Z,7.60
2022-08-03T03:37:59.635Z,7.25
2022-08-03T03:40:28.361Z,7.60
2022-08-03T03:42:58.858Z,7.00
2022-08-03T03:45:27.322Z,6.75
2022-08-03T03:47:54.781Z,7.47
2022-08-03T03:50:23.162Z,7.28
2022-08-03T03:52:50.449Z,7.18
2022-08-03T03:55:24.245Z,5.85
2022-08-03T03:58:17.617Z,6.70
2022-08-03T04:00:51.019Z,6.28
2022-08-03T04:03:19.259Z,6.05
2022-08-03T04:06:05.768Z,6.35
2022-08-03T04:08:59.493Z,6.80
2022-08-03T04:11:44.339Z,5.93
2022-08-03T04:14:40.672Z,6.22
2022-08-03T04:17:15.097Z,6.47
2022-08-03T04:19:51.523Z,7.07
2022-08-03T04:22:29.116Z,6.25
2022-08-03T04:25:08.647Z,6.72
2022-08-03T04:28:07.751Z,6.32
2022-08-03T04:30:54.459Z,7.30
2022-08-03T04:33:47.351Z,7.60
2022-08-03T04:36:21.661Z,7.82
2022-08-03T04:39:06.362Z,6.25
2022-08-03T04:42:08.335Z,6.65
2022-08-03T04:44:28.309Z,6.47
2022-08-03T04:47:00.123Z,7.10
2022-08-03T04:49:30.212Z,7.00
2022-08-03T04:52:02.440Z,6.95
2022-08-03T04:54:29.884Z,5.63
2022-08-03T04:57:27.248Z,6.13
2022-08-03T05:00:03.047Z,7.47
2022-08-03T05:02:32.449Z,6.90
2022-08-03T05:05:00.926Z,5.85
2022-08-03T05:07:35.613Z,6.22
2022-08-03T05:10:16.173Z,6.65
2022-08-03T05:16:59.112Z,5.87
2022-08-03T05:19:26.239Z,6.30
2022-08-03T05:21:53.174Z,5.15
2022-08-03T05:24:20.166Z,6.25
2022-08-03T05:26:47.198Z,6.03
2022-08-03T05:29:14.215Z,5.40
2022-08-03T05:31:41.190Z,5.68
2022-08-03T05:34:09.542Z,6.13
2022-08-03T05:36:36.539Z,7.18
2022-08-03T05:39:03.626Z,6.35
2022-08-03T05:41:36.992Z,7.28
2022-08-03T05:44:05.140Z,6.32
2022-08-03T05:46:32.277Z,5.75
2022-08-03T05:49:00.572Z,5.68
2022-08-03T05:51:29.046Z,6.22
2022-08-03T05:53:56.379Z,6.82
2022-08-03T05:56:25.325Z,6.07
2022-08-03T05:58:52.781Z,6.13
2022-08-03T06:01:22.074Z,5.75
2022-08-03T06:03:50.837Z,6.32
2022-08-03T06:06:18.719Z,5.28
2022-08-03T06:08:46.161Z,5.72
2022-08-03T06:11:19.246Z,6.28
2022-08-03T06:13:46.515Z,6.93
2022-08-03T06:16:14.206Z,6.80
2022-08-03T06:18:41.569Z,7.00
2022-08-03T06:21:15.610Z,6.15
2022-08-03T06:23:54.307Z,5.55
2022-08-03T06:26:31.995Z,4.78
2022-08-03T06:29:03.786Z,5.90
2022-08-03T06:31:32.360Z,6.05
2022-08-03T06:34:34.182Z,5.45
2022-08-03T06:36:53.022Z,4.80
2022-08-03T06:46:48.618Z,4.80
2022-08-03T06:49:15.729Z,5.78
2022-08-03T06:52:04.442Z,5.78
2022-08-03T06:54:32.870Z,6.28
2022-08-03T06:57:00.968Z,5.40
2022-08-03T07:00:10.306Z,5.05
2022-08-03T07:02:22.384Z,5.05
2022-08-03T07:04:49.704Z,4.85
2022-08-03T07:07:17.585Z,4.15
2022-08-03T07:09:56.922Z,5.45
2022-08-03T07:12:26.806Z,4.13
2022-08-03T07:14:57.947Z,3.85
2022-08-03T07:17:27.322Z,4.32
2022-08-03T07:19:54.346Z,4.15
2022-08-03T07:22:21.297Z,4.38
2022-08-03T07:24:48.323Z,4.35
2022-08-03T07:27:16.528Z,4.90
2022-08-03T07:29:43.616Z,4.20
2022-08-03T07:32:10.655Z,3.70
2022-08-03T07:34:39.648Z,4.00
2022-08-03T07:37:06.684Z,4.47
2022-08-03T07:39:36.312Z,4.55
2022-08-03T07:42:03.477Z,4.70
2022-08-03T07:44:30.419Z,4.28
2022-08-03T07:46:57.908Z,4.25
2022-08-03T07:49:25.777Z,4.72
2022-08-03T07:52:11.255Z,4.20
2022-08-03T07:54:56.851Z,4.35
2022-08-03T07:57:24.470Z,4.57
2022-08-03T08:00:01.512Z,4.97
2022-08-03T08:02:39.119Z,4.10
2022-08-03T08:05:06.493Z,4.75
2022-08-03T08:07:33.649Z,4.28
2022-08-03T08:10:04.265Z,5.00
2022-08-03T08:12:31.220Z,4.03
2022-08-03T08:14:58.456Z,4.13
2022-08-03T08:17:25.502Z,4.43
2022-08-03T08:19:53.291Z,5.60
2022-08-03T08:22:29.829Z,4.50
2022-08-03T08:25:01.869Z,4.68
2022-08-03T08:28:29.417Z,4.40
2022-08-03T08:30:19.649Z,4.28
2022-08-03T08:32:48.088Z,4.03
2022-08-03T08:35:16.009Z,4.45
2022-08-03T08:37:44.298Z,4.90
2022-08-03T08:40:21.943Z,4.32
2022-08-03T08:42:58.388Z,5.25
2022-08-03T08:45:28.875Z,5.18
2022-08-03T08:48:01.884Z,5.28
2022-08-03T08:50:38.990Z,5.38
2022-08-03T08:53:09.837Z,5.45
2022-08-03T08:58:28.801Z,4.75
2022-08-03T09:00:56.236Z,4.10
2022-08-03T09:03:30.134Z,4.15
2022-08-03T09:06:00.931Z,4.55
2022-08-03T09:08:29.869Z,4.53
2022-08-03T09:10:56.901Z,4.78
2022-08-03T09:13:24.357Z,5.20
2022-08-03T09:16:09.327Z,4.35
2022-08-03T09:18:36.317Z,4.85
2022-08-03T09:21:31.731Z,5.38
2022-08-03T09:24:03.336Z,4.85
2022-08-03T09:26:32.159Z,4.82
2022-08-03T09:29:14.916Z,5.45
2022-08-03T09:31:47.050Z,5.15
2022-08-03T09:34:16.766Z,4.53
2022-08-03T09:36:48.834Z,4.50
2022-08-03T09:39:40.424Z,4.70
2022-08-03T09:42:15.636Z,5.38
2022-08-03T09:44:47.934Z,5.00
2022-08-03T09:47:28.362Z,4.88
2022-08-03T09:50:05.653Z,4.85
2022-08-03T09:52:49.641Z,5.32
2022-08-03T09:56:33.620Z,5.10
2022-08-03T09:58:14.473Z,5.63
2022-08-03T10:00:56.678Z,4.82
2022-08-03T10:03:25.509Z,4.38
2022-08-03T10:05:59.022Z,4.90
2022-08-03T10:08:26.563Z,5.03
2022-08-03T10:10:55.254Z,5.20
2022-08-03T10:13:23.317Z,4.70
2022-08-03T10:16:22.082Z,4.72
2022-08-03T10:18:37.757Z,4.78
2022-08-03T10:21:08.891Z,4.50
2022-08-03T10:23:38.026Z,4.43
2022-08-03T10:26:07.932Z,4.38
2022-08-03T10:28:44.357Z,4.93
2022-08-03T10:31:14.305Z,4.82
2022-08-03T10:33:53.019Z,4.55
2022-08-03T10:36:24.399Z,4.82
2022-08-03T10:38:53.435Z,4.28
2022-08-03T10:41:22.047Z,4.90
2022-08-03T10:44:14.111Z,4.30
2022-08-03T10:46:45.273Z,4.85
2022-08-03T10:49:20.654Z,4.18
2022-08-03T10:52:13.365Z,5.35
2022-08-03T10:55:10.718Z,5.05
2022-08-03T10:57:58.784Z,5.10
2022-08-03T11:00:28.417Z,4.95
2022-08-03T11:03:08.960Z,4.32
2022-08-03T11:05:43.842Z,4.85
2022-08-03T11:08:26.271Z,5.50
2022-08-03T11:10:58.333Z,4.93
2022-08-03T11:13:28.459Z,5.03
2022-08-03T11:16:00.029Z,4.45
2022-08-03T11:18:29.683Z,4.65
2022-08-03T11:20:59.036Z,4.80
2022-08-03T11:24:04.233Z,4.65
2022-08-03T11:26:34.664Z,4.82
2022-08-03T11:29:40.900Z,4.35
2022-08-03T11:32:16.643Z,4.50
2022-08-03T11:35:09.886Z,4.13
2022-08-03T11:38:03.150Z,4.85
2022-08-03T11:41:06.761Z,5.00
2022-08-03T11:43:35.854Z,4.85
2022-08-03T11:46:08.700Z,5.63
2022-08-03T11:48:47.384Z,6.00
2022-08-03T11:51:34.219Z,5.25
2022-08-03T11:54:06.506Z,4.90
2022-08-03T11:56:51.060Z,4.78
2022-08-03T11:59:22.254Z,4.85
2022-08-03T12:01:50.678Z,4.97
2022-08-03T12:04:22.315Z,4.70
2022-08-03T12:07:04.079Z,5.75
2022-08-03T12:09:31.624Z,4.43
2022-08-03T12:12:00.646Z,5.10
2022-08-03T12:14:50.131Z,5.22
2022-08-03T12:17:18.245Z,5.10
2022-08-03T12:19:45.969Z,5.07
2022-08-03T12:22:14.210Z,5.30
2022-08-03T12:24:46.754Z,5.75
2022-08-03T12:27:25.182Z,5.68
2022-08-03T12:29:58.496Z,4.85
2022-08-03T12:32:29.923Z,4.90
2022-08-03T12:35:04.935Z,4.90
2022-08-03T12:37:33.074Z,5.00
2022-08-03T12:40:09.467Z,4.65
2022-08-03T12:42:40.800Z,5.25
2022-08-03T12:45:25.190Z,5.25
2022-08-03T12:48:02.569Z,5.70
2022-08-03T12:50:34.785Z,4.78
2022-08-03T12:53:05.397Z,4.20
2022-08-03T12:55:56.734Z,5.15
2022-08-03T12:58:34.676Z,5.25
2022-08-03T13:01:05.116Z,4.43
2022-08-03T13:04:05.722Z,4.60
2022-08-03T13:06:32.818Z,4.82
2022-08-03T13:09:06.702Z,5.22
2022-08-03T13:11:55.508Z,5.57
2022-08-03T13:14:23.695Z,5.18
2022-08-03T13:16:51.564Z,5.43
2022-08-03T13:19:18.733Z,5.00
2022-08-03T13:22:01.673Z,4.85
2022-08-03T13:24:31.811Z,5.18
2022-08-03T13:27:00.294Z,5.30
2022-08-03T13:29:27.938Z,4.97
2022-08-03T13:31:55.135Z,4.50
2022-08-03T13:34:23.834Z,4.95
2022-08-03T13:39:57.296Z,5.00
2022-08-03T13:42:29.740Z,5.65
2022-08-03T13:45:04.484Z,4.15
2022-08-03T13:47:31.917Z,5.03
2022-08-03T13:50:01.928Z,4.55
2022-08-03T13:52:33.653Z,6.22
2022-08-03T13:55:01.993Z,4.93
2022-08-03T13:58:18.927Z,4.90
2022-08-03T14:00:27.917Z,5.63
2022-08-03T14:03:16.421Z,4.93
2022-08-03T14:05:44.191Z,5.28
2022-08-03T14:08:12.225Z,5.15
2022-08-03T14:10:43.497Z,4.78
2022-08-03T14:13:18.952Z,4.97
2022-08-03T14:16:41.538Z,4.60
2022-08-03T14:19:24.883Z,5.00
2022-08-03T14:22:05.247Z,5.25
2022-08-03T14:24:34.175Z,4.40
2022-08-03T14:27:08.633Z,4.78
2022-08-03T14:29:36.496Z,5.50
2022-08-03T14:32:11.914Z,4.03
2022-08-03T14:34:45.927Z,4.57
2022-08-03T14:37:14.550Z,5.38
2022-08-03T14:42:30.001Z,4.70
2022-08-03T14:45:02.450Z,4.20
2022-08-03T14:47:31.770Z,5.43
2022-08-03T14:50:33.839Z,5.72
2022-08-03T14:52:45.674Z,4.63
2022-08-03T14:55:13.156Z,4.20
2022-08-03T14:57:49.051Z,4.35
2022-08-03T15:00:16.386Z,4.13
2022-08-03T15:02:43.429Z,4.45
2022-08-03T15:05:12.835Z,5.95
2022-08-03T15:07:39.796Z,5.03
2022-08-03T15:10:07.036Z,5.65
2022-08-03T15:12:33.962Z,4.95
2022-08-03T15:15:00.982Z,5.28
2022-08-03T15:17:29.544Z,4.85
2022-08-03T15:20:03.087Z,4.97
2022-08-03T15:22:43.477Z,4.90
2022-08-03T15:26:03.894Z,5.57
2022-08-03T15:28:03.718Z,5.40
2022-08-03T15:30:36.087Z,6.43
2022-08-03T15:33:03.697Z,6.50
2022-08-03T15:35:30.693Z,4.70
2022-08-03T15:37:58.125Z,5.28
2022-08-03T15:40:25.072Z,5.95
2022-08-03T15:42:52.096Z,5.28
2022-08-03T15:45:20.443Z,4.60
2022-08-03T15:47:47.536Z,5.63
2022-08-03T15:50:14.501Z,6.25
2022-08-03T15:52:41.458Z,5.15
2022-08-03T15:55:09.111Z,4.80
2022-08-03T15:59:10.431Z,5.72
2022-08-03T16:00:33.587Z,4.82
2022-08-03T16:03:01.348Z,5.32
2022-08-03T16:05:28.829Z,5.22
2022-08-03T16:08:03.100Z,5.85
2022-08-03T16:10:32.231Z,6.07
2022-08-03T16:13:00.312Z,5.05
2022-08-03T16:15:28.161Z,5.90
2022-08-03T16:17:55.237Z,5.60
2022-08-03T16:20:31.438Z,5.88
2022-08-03T16:23:10.302Z,5.80
2022-08-03T16:25:41.787Z,5.75
2022-08-03T16:28:13.765Z,5.18
2022-08-03T16:30:43.962Z,5.43
2022-08-03T16:33:17.465Z,4.65
2022-08-03T16:35:46.625Z,5.63
2022-08-03T16:38:18.576Z,5.35
2022-08-03T16:40:53.371Z,5.88
2022-08-03T16:43:22.558Z,5.78
2022-08-03T16:45:49.911Z,5.50
2022-08-03T16:48:17.809Z,5.25
2022-08-03T16:50:45.424Z,4.90
2022-08-03T16:53:16.634Z,5.32
2022-08-03T16:55:53.726Z,5.63
2022-08-03T16:58:41.075Z,5.57
2022-08-03T17:01:24.026Z,6.72
2022-08-03T17:04:03.504Z,5.90
2022-08-03T17:06:37.755Z,6.53
2022-08-03T17:09:08.811Z,5.90
2022-08-03T17:11:44.058Z,5.50
2022-08-03T17:14:28.233Z,6.57
2022-08-03T17:17:01.646Z,5.82
2022-08-03T17:19:32.378Z,6.88
2022-08-03T17:22:08.982Z,5.72
2022-08-03T17:24:41.009Z,6.53
2022-08-03T17:27:18.609Z,6.13
2022-08-03T17:30:22.015Z,6.88
2022-08-03T17:32:57.959Z,6.15
2022-08-03T17:38:08.893Z,6.10
2022-08-03T17:40:37.932Z,6.32
2022-08-03T17:44:13.283Z,6.13
2022-08-03T17:46:07.318Z,5.85
2022-08-03T17:48:41.536Z,5.45
2022-08-03T17:51:28.455Z,5.20
2022-08-03T17:54:18.321Z,6.13
2022-08-03T17:57:22.699Z,5.50
2022-08-03T18:00:23.346Z,6.28
2022-08-03T18:03:13.391Z,6.07
2022-08-03T18:06:10.930Z,5.68
2022-08-03T18:08:34.710Z,5.90
2022-08-03T18:11:09.644Z,6.93
2022-08-03T18:13:44.988Z,6.00
2022-08-03T18:16:52.856Z,6.03
2022-08-03T18:20:00.892Z,6.13
2022-08-03T18:22:54.807Z,6.45
2022-08-03T18:25:45.479Z,6.75
2022-08-03T18:29:12.542Z,6.50
2022-08-03T18:38:10.420Z,6.55
2022-08-03T18:41:46.484Z,5.35
2022-08-03T18:45:55.347Z,5.63
2022-08-03T18:48:46.240Z,6.78
2022-08-03T18:59:53.004Z,6.38
2022-08-03T19:03:02.415Z,5.10
2022-08-03T19:06:14.552Z,5.88
2022-08-03T19:08:56.017Z,6.00
2022-08-03T19:12:11.717Z,7.20
2022-08-03T19:14:28.761Z,5.40
2022-08-03T19:17:09.310Z,6.05
2022-08-03T19:19:43.423Z,6.40
2022-08-03T19:22:16.079Z,5.72
2022-08-03T19:25:05.715Z,5.15
2022-08-03T19:27:34.786Z,5.97
2022-08-03T19:30:11.922Z,6.22
2022-08-03T19:32:50.536Z,5.88
2022-08-03T19:38:27.422Z,6.25
2022-08-03T19:41:07.959Z,6.03
2022-08-03T19:43:52.786Z,5.40
2022-08-03T19:46:30.209Z,5.75
2022-08-03T19:49:10.708Z,6.63
2022-08-03T19:52:02.538Z,6.78
2022-08-03T19:54:53.712Z,5.47
2022-08-03T19:57:25.500Z,6.72
2022-08-03T19:59:55.836Z,5.95
2022-08-03T20:02:26.294Z,5.55
2022-08-03T20:05:00.538Z,5.10
2022-08-03T20:07:32.128Z,5.15
2022-08-03T20:10:02.155Z,5.43
2022-08-03T20:12:34.389Z,5.75
2022-08-03T20:15:07.524Z,5.75
2022-08-03T20:17:54.361Z,6.20
2022-08-03T20:20:25.820Z,5.78
2022-08-03T20:22:57.492Z,4.95
2022-08-03T20:28:32.991Z,5.47
2022-08-03T20:31:01.875Z,5.80
2022-08-03T20:33:48.860Z,6.15
2022-08-03T20:36:18.907Z,5.85
2022-08-03T20:38:50.171Z,6.32
2022-08-03T20:41:23.999Z,5.70
2022-08-03T20:43:51.172Z,6.07
2022-08-03T20:46:31.889Z,5.40
2022-08-03T20:49:06.193Z,5.40
2022-08-03T20:51:49.050Z,6.20
2022-08-03T20:54:29.341Z,6.63
2022-08-03T20:56:59.407Z,5.60
2022-08-03T20:59:46.961Z,5.80
2022-08-03T21:02:30.382Z,5.47
2022-08-03T21:05:03.362Z,6.15
2022-08-03T21:08:03.779Z,5.53
2022-08-03T21:10:29.442Z,5.45
2022-08-03T21:13:02.506Z,6.20
2022-08-03T21:13:12.389Z,5.57
2022-08-03T21:13:32.086Z,5.63
2022-08-03T21:16:11.439Z,5.55
2022-08-03T21:18:46.171Z,4.75
2022-08-03T21:21:16.174Z,6.40
2022-08-03T21:23:48.591Z,6.95
2022-08-03T21:26:18.744Z,5.18
2022-08-03T21:28:48.062Z,5.40
2022-08-03T21:31:25.414Z,5.25
2022-08-03T21:33:55.801Z,5.72
2022-08-03T21:36:23.757Z,5.57
2022-08-03T21:38:56.253Z,5.40
2022-08-03T21:43:51.888Z,4.95
2022-08-03T21:46:20.150Z,5.90
2022-08-03T21:48:51.718Z,6.72
2022-08-03T21:51:20.213Z,4.10
2022-08-03T21:54:02.341Z,5.07
2022-08-03T21:56:41.616Z,5.03
2022-08-03T21:59:17.072Z,5.38
2022-08-03T22:01:49.329Z,4.68
2022-08-03T22:04:55.077Z,4.43
2022-08-03T22:07:08.852Z,4.88
2022-08-03T22:09:36.878Z,5.65
2022-08-03T22:12:04.440Z,5.43
2022-08-03T22:14:34.418Z,5.93
2022-08-03T22:17:03.404Z,5.78
2022-08-03T22:19:34.380Z,5.00
2022-08-03T22:22:07.767Z,4.68
2022-08-03T22:24:36.904Z,5.63
2022-08-03T22:27:22.852Z,5.38
2022-08-03T22:29:52.324Z,5.63
2022-08-03T22:32:19.799Z,5.38
2022-08-03T22:34:49.509Z,5.32
2022-08-03T22:37:19.926Z,4.90
2022-08-03T22:39:50.030Z,5.68
2022-08-03T22:42:19.685Z,5.18
2022-08-03T22:44:50.158Z,6.55
2022-08-03T22:47:22.568Z,5.57
2022-08-03T22:50:32.783Z,5.90
2022-08-03T22:52:41.853Z,6.32
2022-08-03T22:55:12.335Z,5.75
2022-08-03T22:57:56.125Z,4.50
2022-08-03T23:00:24.607Z,5.20
2022-08-03T23:02:54.021Z,5.20
2022-08-03T23:06:02.636Z,5.82
2022-08-03T23:08:14.828Z,5.45
2022-08-03T23:10:47.246Z,5.60
2022-08-03T23:13:18.704Z,6.13
2022-08-03T23:15:55.468Z,6.25
2022-08-03T23:18:23.917Z,5.18
2022-08-03T23:20:54.665Z,5.72
2022-08-03T23:23:22.935Z,6.18
2022-08-03T23:25:51.635Z,5.53
2022-08-03T23:28:19.225Z,6.03
2022-08-03T23:30:49.149Z,6.72
2022-08-03T23:33:17.590Z,5.65
2022-08-03T23:36:29.114Z,6.93
2022-08-03T23:38:46.175Z,5.28
2022-08-03T23:41:17.381Z,6.28
2022-08-03T23:43:53.694Z,6.78
2022-08-03T23:46:27.484Z,6.40
2022-08-03T23:48:56.713Z,5.97
2022-08-03T23:51:29.597Z,7.07
2022-08-03T23:54:06.604Z,7.13
2022-08-03T23:57:02.466Z,6.70
2022-08-03T23:59:39.878Z,6.45
